Meiyo — JNQN — position and weather

sailwx.info

Track history (hours):
 
Tides and Currents Weather Stations Pressure Air Temp Water Temp Dewpoint Dewpoint Depression Visibility Wind Speed Wind Dir Waves Ship Positions

Oceanographic research ship Meiyo (Japan)

Detailed information on ship capabilities available from University of Delaware's Ocean Information Center.

Last reported at 2017-Dec-07 22:28 UTC. Time now 2017-Dec-13 12:57 UTC.
Position N 33°55' E 136°34'.

Length 60 m; draft 3.5 m.

Type: Other ship. MMSI: 431100381.

Date/timePositionNaut miles runAvg speedWind from/ knotsBaromVisibWave heightAir tempDewpointWater temp
2017-Dec-07 22:28N 33°55' E 136°34'1113.8
2017-Dec-07 21:41N 34°03' E 136°43'314.2
2017-Dec-07 21:30N 34°05' E 136°45'6812.7
2017-Dec-07 16:07N 34°31' E 138°02'312.9
2017-Dec-07 15:53N 34°31' E 138°06'612.2
2017-Dec-07 15:25N 34°31' E 138°13'811.1
2017-Dec-07 14:43N 34°32' E 138°22'310.6
2017-Dec-07 14:29N 34°32' E 138°25'2111.1
2017-Dec-07 12:33N 34°32' E 138°51'111.0
2017-Dec-07 12:30N 34°32' E 138°52'510.7
2017-Dec-07 12:00N 34°32' E 138°58'710.5
2017-Dec-07 11:21N 34°36' E 139°04'511.8
2017-Dec-07 10:56N 34°40' E 139°08'512.1
2017-Dec-07 10:30N 34°45' E 139°11'911.7
2017-Dec-07 09:41N 34°52' E 139°19'311.6
2017-Dec-07 09:27N 34°53' E 139°22'611.2
2017-Dec-07 08:53N 34°56' E 139°29'411.3
2017-Dec-07 08:30N 34°59' E 139°33'612.5
2017-Dec-07 08:01N 35°03' E 139°38'713.5
2017-Dec-07 07:30N 35°08' E 139°44'612.6
2017-Dec-07 07:01N 35°14' E 139°46'611.5
2017-Dec-07 06:30N 35°19' E 139°43'611.5
2017-Dec-07 06:00N 35°25' E 139°44'612.5
2017-Dec-07 05:31N 35°29' E 139°50'510.6
2017-Dec-07 05:00N 35°34' E 139°49'5 9.6
2017-Dec-07 04:30N 35°38' E 139°46'1 1.2
2017-Dec-07 04:01N 35°38' E 139°47'0 0.0
2017-Dec-07 01:49N 35°38' E 139°47'0 0.0
2017-Dec-07 01:30N 35°38' E 139°47'0 0.0
2017-Dec-07 00:58N 35°38' E 139°47'0 0.0
2017-Dec-07 00:30N 35°38' E 139°47'  
2017-Dec-01 04:06N 35°38' E 139°47'0 0.0
2017-Dec-01 04:00N 35°38' E 139°47'0 0.0
2017-Dec-01 03:30N 35°38' E 139°47'0 0.0
2017-Dec-01 03:00N 35°38' E 139°47'0 0.0
2017-Dec-01 02:30N 35°38' E 139°47'0 0.0
2017-Dec-01 02:00N 35°38' E 139°47'0 0.0
2017-Dec-01 01:30N 35°38' E 139°47'0 0.0
2017-Dec-01 01:00N 35°38' E 139°47'1 2.8
2017-Dec-01 00:31N 35°37' E 139°46'5 9.7
2017-Dec-01 00:00N 35°33' E 139°50'3 6.6
2017-Nov-30 23:31N 35°33' E 139°54'0 0.7
2017-Nov-30 23:00N 35°33' E 139°54'0 0.8
2017-Nov-30 22:30N 35°34' E 139°54'1 2.8
2017-Nov-30 22:01N 35°32' E 139°54'0 0.8
2017-Nov-30 21:31N 35°33' E 139°54'0 0.7
2017-Nov-30 21:01N 35°33' E 139°54'3 5.2
2017-Nov-30 20:30N 35°31' E 139°53'611.5
2017-Nov-30 20:00N 35°26' E 139°48'611.3
2017-Nov-30 19:30N 35°21' E 139°45'510.2
2017-Nov-30 19:01N 35°16' E 139°46'611.4
2017-Nov-30 18:30N 35°11' E 139°47'612.1
2017-Nov-30 18:00N 35°05' E 139°45'713.2
2017-Nov-30 17:30N 34°58' E 139°43'712.1
2017-Nov-30 16:55N 34°51' E 139°45'511.9
2017-Nov-30 16:28N 34°47' E 139°48'91 1.8
2017-Nov-28 13:15N 34°05' E 138°10'413.3
2017-Nov-28 12:57N 34°08' E 138°14'713.6
2017-Nov-28 12:26N 34°11' E 138°21'613.5
2017-Nov-28 12:00N 34°15' E 138°27'713.0
2017-Nov-28 11:27N 34°19' E 138°34'712.0
2017-Nov-28 10:51N 34°22' E 138°42'1211.8
2017-Nov-28 09:51N 34°29' E 138°54'411.2
2017-Nov-28 09:30N 34°31' E 138°57'511.1
2017-Nov-28 09:00N 34°35' E 139°03'611.0
2017-Nov-28 08:29N 34°39' E 139°07'710.7
2017-Nov-28 07:48N 34°45' E 139°12'411.0
2017-Nov-28 07:27N 34°48' E 139°14'611.5
2017-Nov-28 06:56N 34°52' E 139°20'512.0
2017-Nov-28 06:30N 34°55' E 139°26'611.6
2017-Nov-28 05:59N 34°58' E 139°31'613.0
2017-Nov-28 05:31N 35°03' E 139°37'1313.1
2017-Nov-28 04:30N 35°13' E 139°46'612.1
2017-Nov-28 04:00N 35°19' E 139°43'612.2
2017-Nov-28 03:30N 35°25' E 139°43'713.4
2017-Nov-28 03:00N 35°29' E 139°50'611.2
2017-Nov-28 02:30N 35°34' E 139°48'4 8.1
2017-Nov-28 02:00N 35°38' E 139°47'0 0.3
2017-Nov-28 01:26N 35°38' E 139°47'0 0.0
2017-Nov-28 00:51N 35°38' E 139°47'  
Track history (hours):
 
Tides and Currents Weather Stations Pressure Air Temp Water Temp Dewpoint Dewpoint Depression Visibility Wind Speed Wind Dir Waves Ship Positions

Oceanographic research ship Meiyo (Japan)

Detailed information on ship capabilities available from University of Delaware's Ocean Information Center.

Last reported at 2017-Dec-07 22:28 UTC. Time now 2017-Dec-13 12:57 UTC.
Position N 33°55' E 136°34'.

Length 60 m; draft 3.5 m.

Type: Other ship. MMSI: 431100381.

Date/timePositionNaut miles runAvg speedWind from/ knotsBaromVisibWave heightAir tempDewpointWater temp
2017-Dec-07 22:28N 33°55' E 136°34'1113.8
2017-Dec-07 21:41N 34°03' E 136°43'314.2
2017-Dec-07 21:30N 34°05' E 136°45'6812.7
2017-Dec-07 16:07N 34°31' E 138°02'312.9
2017-Dec-07 15:53N 34°31' E 138°06'612.2
2017-Dec-07 15:25N 34°31' E 138°13'811.1
2017-Dec-07 14:43N 34°32' E 138°22'310.6
2017-Dec-07 14:29N 34°32' E 138°25'2111.1
2017-Dec-07 12:33N 34°32' E 138°51'111.0
2017-Dec-07 12:30N 34°32' E 138°52'510.7
2017-Dec-07 12:00N 34°32' E 138°58'710.5
2017-Dec-07 11:21N 34°36' E 139°04'511.8
2017-Dec-07 10:56N 34°40' E 139°08'512.1
2017-Dec-07 10:30N 34°45' E 139°11'911.7
2017-Dec-07 09:41N 34°52' E 139°19'311.6
2017-Dec-07 09:27N 34°53' E 139°22'611.2
2017-Dec-07 08:53N 34°56' E 139°29'411.3
2017-Dec-07 08:30N 34°59' E 139°33'612.5
2017-Dec-07 08:01N 35°03' E 139°38'713.5
2017-Dec-07 07:30N 35°08' E 139°44'612.6
2017-Dec-07 07:01N 35°14' E 139°46'611.5
2017-Dec-07 06:30N 35°19' E 139°43'611.5
2017-Dec-07 06:00N 35°25' E 139°44'612.5
2017-Dec-07 05:31N 35°29' E 139°50'510.6
2017-Dec-07 05:00N 35°34' E 139°49'5 9.6
2017-Dec-07 04:30N 35°38' E 139°46'1 1.2
2017-Dec-07 04:01N 35°38' E 139°47'0 0.0
2017-Dec-07 01:49N 35°38' E 139°47'0 0.0
2017-Dec-07 01:30N 35°38' E 139°47'0 0.0
2017-Dec-07 00:58N 35°38' E 139°47'0 0.0
2017-Dec-07 00:30N 35°38' E 139°47'  
2017-Dec-01 04:06N 35°38' E 139°47'0 0.0
2017-Dec-01 04:00N 35°38' E 139°47'0 0.0
2017-Dec-01 03:30N 35°38' E 139°47'0 0.0
2017-Dec-01 03:00N 35°38' E 139°47'0 0.0
2017-Dec-01 02:30N 35°38' E 139°47'0 0.0
2017-Dec-01 02:00N 35°38' E 139°47'0 0.0
2017-Dec-01 01:30N 35°38' E 139°47'0 0.0
2017-Dec-01 01:00N 35°38' E 139°47'1 2.8
2017-Dec-01 00:31N 35°37' E 139°46'5 9.7
2017-Dec-01 00:00N 35°33' E 139°50'3 6.6
2017-Nov-30 23:31N 35°33' E 139°54'0 0.7
2017-Nov-30 23:00N 35°33' E 139°54'0 0.8
2017-Nov-30 22:30N 35°34' E 139°54'1 2.8
2017-Nov-30 22:01N 35°32' E 139°54'0 0.8
2017-Nov-30 21:31N 35°33' E 139°54'0 0.7
2017-Nov-30 21:01N 35°33' E 139°54'3 5.2
2017-Nov-30 20:30N 35°31' E 139°53'611.5
2017-Nov-30 20:00N 35°26' E 139°48'611.3
2017-Nov-30 19:30N 35°21' E 139°45'510.2
2017-Nov-30 19:01N 35°16' E 139°46'611.4
2017-Nov-30 18:30N 35°11' E 139°47'612.1
2017-Nov-30 18:00N 35°05' E 139°45'713.2
2017-Nov-30 17:30N 34°58' E 139°43'712.1
2017-Nov-30 16:55N 34°51' E 139°45'511.9
2017-Nov-30 16:28N 34°47' E 139°48'91 1.8
2017-Nov-28 13:15N 34°05' E 138°10'413.3
2017-Nov-28 12:57N 34°08' E 138°14'713.6
2017-Nov-28 12:26N 34°11' E 138°21'613.5
2017-Nov-28 12:00N 34°15' E 138°27'713.0
2017-Nov-28 11:27N 34°19' E 138°34'712.0
2017-Nov-28 10:51N 34°22' E 138°42'1211.8
2017-Nov-28 09:51N 34°29' E 138°54'411.2
2017-Nov-28 09:30N 34°31' E 138°57'511.1
2017-Nov-28 09:00N 34°35' E 139°03'611.0
2017-Nov-28 08:29N 34°39' E 139°07'710.7
2017-Nov-28 07:48N 34°45' E 139°12'411.0
2017-Nov-28 07:27N 34°48' E 139°14'611.5
2017-Nov-28 06:56N 34°52' E 139°20'512.0
2017-Nov-28 06:30N 34°55' E 139°26'611.6
2017-Nov-28 05:59N 34°58' E 139°31'613.0
2017-Nov-28 05:31N 35°03' E 139°37'1313.1
2017-Nov-28 04:30N 35°13' E 139°46'612.1
2017-Nov-28 04:00N 35°19' E 139°43'612.2
2017-Nov-28 03:30N 35°25' E 139°43'713.4
2017-Nov-28 03:00N 35°29' E 139°50'611.2
2017-Nov-28 02:30N 35°34' E 139°48'4 8.1
2017-Nov-28 02:00N 35°38' E 139°47'0 0.3
2017-Nov-28 01:26N 35°38' E 139°47'0 0.0
2017-Nov-28 00:51N 35°38' E 139°47'  

Dump ship's entire track history